createdAt,value
2018-06-13T00:02:01.284Z,18.90
2018-06-13T00:04:31.097Z,18.90
2018-06-13T00:06:59.225Z,18.90
2018-06-13T00:09:30.148Z,18.90
2018-06-13T00:11:57.794Z,18.80
2018-06-13T00:14:26.460Z,18.80
2018-06-13T00:17:10.085Z,18.80
2018-06-13T00:19:43.115Z,18.80
2018-06-13T00:22:14.589Z,18.80
2018-06-13T00:24:42.238Z,18.80
2018-06-13T00:27:12.541Z,18.80
2018-06-13T00:29:42.047Z,18.80
2018-06-13T00:32:12.116Z,18.80
2018-06-13T00:39:42.400Z,18.80
2018-06-13T00:42:15.068Z,18.80
2018-06-13T00:44:46.145Z,18.70
2018-06-13T00:47:13.712Z,18.60
2018-06-13T00:49:41.325Z,18.60
2018-06-13T00:52:09.322Z,18.60
2018-06-13T00:54:37.660Z,18.50
2018-06-13T00:57:05.342Z,18.50
2018-06-13T00:59:33.442Z,18.40
2018-06-13T01:02:01.286Z,18.40
2018-06-13T01:04:29.605Z,18.30
2018-06-13T01:06:57.453Z,18.30
2018-06-13T01:09:24.904Z,18.30
2018-06-13T01:11:52.582Z,18.30
2018-06-13T01:14:21.569Z,18.30
2018-06-13T01:16:49.298Z,18.20
2018-06-13T01:21:44.431Z,18.30
2018-06-13T01:24:11.978Z,18.30
2018-06-13T01:26:39.689Z,18.30
2018-06-13T01:29:07.199Z,18.30
2018-06-13T01:31:35.559Z,18.30
2018-06-13T01:34:03.171Z,18.40
2018-06-13T01:36:31.072Z,18.30
2018-06-13T01:38:58.965Z,18.30
2018-06-13T01:41:27.399Z,18.30
2018-06-13T01:43:55.026Z,18.30
2018-06-13T01:46:23.596Z,18.30
2018-06-13T01:48:51.752Z,18.30
2018-06-13T01:51:19.318Z,18.30
2018-06-13T01:56:15.238Z,18.30
2018-06-13T01:58:43.340Z,18.40
2018-06-13T02:03:39.253Z,18.50
2018-06-13T02:06:06.938Z,18.40
2018-06-13T02:08:35.517Z,18.40
2018-06-13T02:11:03.337Z,18.30
2018-06-13T02:13:31.553Z,18.30
2018-06-13T02:15:59.269Z,18.20
2018-06-13T02:18:26.829Z,18.20
2018-06-13T02:20:54.460Z,18.20
2018-06-13T02:23:21.922Z,18.20
2018-06-13T02:25:49.555Z,18.20
2018-06-13T02:28:17.214Z,18.00
2018-06-13T02:30:45.422Z,18.20
2018-06-13T02:33:13.259Z,18.10
2018-06-13T02:35:41.729Z,18.10
2018-06-13T02:38:09.291Z,18.10
2018-06-13T02:40:36.766Z,18.00
2018-06-13T02:43:04.399Z,18.00
2018-06-13T02:45:31.912Z,18.00
2018-06-13T02:47:59.441Z,18.00
2018-06-13T02:50:28.530Z,17.90
2018-06-13T03:36:37.590Z,17.60
2018-06-13T03:39:07.639Z,17.60
2018-06-13T03:41:36.185Z,17.50
2018-06-13T03:44:04.977Z,17.50
2018-06-13T03:49:00.041Z,17.60
2018-06-13T03:51:27.854Z,17.60
2018-06-13T03:53:56.066Z,17.60
2018-06-13T03:56:23.701Z,17.60
2018-06-13T03:58:51.241Z,17.60
2018-06-13T04:01:19.580Z,17.50
2018-06-13T04:03:47.127Z,17.60
2018-06-13T04:06:15.575Z,17.60
2018-06-13T04:08:43.138Z,17.70
2018-06-13T04:11:12.428Z,17.90
2018-06-13T04:13:40.104Z,17.90
2018-06-13T04:16:07.694Z,18.00
2018-06-13T04:18:37.363Z,18.10
2018-06-13T04:21:06.146Z,18.10
2018-06-13T04:23:34.168Z,18.20
2018-06-13T04:26:09.694Z,18.20
2018-06-13T04:28:38.484Z,18.20
2018-06-13T04:31:07.344Z,18.10
2018-06-13T04:33:34.904Z,18.20
2018-06-13T04:45:54.201Z,18.20
2018-06-13T04:48:21.771Z,18.20
2018-06-13T04:50:49.758Z,18.20
2018-06-13T04:55:44.659Z,18.40
2018-06-13T04:58:12.872Z,18.50
2018-06-13T05:00:40.711Z,18.50
2018-06-13T05:03:09.013Z,18.60
2018-06-13T05:05:37.527Z,18.70
2018-06-13T05:08:05.892Z,18.70
2018-06-13T05:10:35.213Z,18.80
2018-06-13T05:13:02.784Z,18.90
2018-06-13T05:15:31.661Z,18.90
2018-06-13T05:18:00.212Z,19.00
2018-06-13T05:20:30.502Z,19.00
2018-06-13T05:22:59.004Z,19.10
2018-06-13T05:25:27.274Z,19.10
2018-06-13T05:27:54.827Z,19.20
2018-06-13T05:30:22.478Z,19.40
2018-06-13T05:42:35.632Z,19.90
2018-06-13T05:45:03.299Z,20.00
2018-06-13T05:47:31.486Z,20.00
2018-06-13T05:49:59.197Z,20.20
2018-06-13T05:52:26.740Z,20.20
2018-06-13T05:54:54.809Z,20.40
2018-06-13T05:57:22.408Z,20.50
2018-06-13T05:59:50.785Z,20.50
2018-06-13T06:02:19.130Z,20.80
2018-06-13T06:04:47.310Z,20.90
2018-06-13T06:07:14.802Z,20.90
2018-06-13T06:09:42.430Z,21.20
2018-06-13T06:12:10.004Z,21.40
2018-06-13T06:14:38.272Z,21.40
2018-06-13T06:17:07.317Z,21.50
2018-06-13T06:19:35.186Z,21.70
2018-06-13T06:22:04.005Z,21.70
2018-06-13T06:24:31.680Z,22.00
2018-06-13T06:29:28.270Z,22.40
2018-06-13T06:34:23.265Z,22.80
2018-06-13T06:36:51.183Z,23.10
2018-06-13T06:39:18.801Z,23.40
2018-06-13T06:41:46.893Z,23.50
2018-06-13T06:44:15.288Z,23.90
2018-06-13T06:46:43.236Z,24.40
2018-06-13T06:59:01.901Z,23.80
2018-06-13T07:01:29.712Z,23.70
2018-06-13T07:03:58.149Z,24.00
2018-06-13T07:06:25.678Z,24.30
2018-06-13T07:08:53.171Z,24.10
2018-06-13T07:11:21.904Z,25.00
2018-06-13T07:13:50.609Z,24.90
2018-06-13T07:16:18.163Z,24.80
2018-06-13T07:18:45.714Z,24.10
2018-06-13T07:21:14.851Z,23.40
2018-06-13T07:23:43.941Z,23.00
2018-06-13T07:26:11.483Z,22.60
2018-06-13T07:28:39.584Z,22.70
2018-06-13T07:31:07.831Z,22.30
2018-06-13T07:33:36.519Z,22.00
2018-06-13T07:36:04.583Z,21.90
2018-06-13T07:38:32.148Z,21.80
2018-06-13T07:40:59.730Z,21.70
2018-06-13T07:53:17.270Z,21.70
2018-06-13T07:55:45.441Z,20.90
2018-06-13T07:58:13.041Z,20.80
2018-06-13T08:00:41.001Z,20.80
2018-06-13T08:03:08.530Z,20.60
2018-06-13T08:05:36.678Z,20.70
2018-06-13T08:08:05.510Z,20.80
2018-06-13T08:10:33.003Z,20.90
2018-06-13T08:13:01.521Z,20.80
2018-06-13T08:15:29.011Z,20.80
2018-06-13T08:17:57.513Z,20.70
2018-06-13T08:20:25.648Z,20.60
2018-06-13T08:22:54.539Z,20.60
2018-06-13T08:25:23.054Z,20.60
2018-06-13T08:27:50.881Z,20.60
2018-06-13T08:30:19.045Z,20.70
2018-06-13T08:32:47.137Z,20.70
2018-06-13T08:35:15.319Z,20.80
2018-06-13T08:37:42.980Z,20.70
2018-06-13T08:40:10.633Z,20.60
2018-06-13T08:42:38.165Z,20.60
2018-06-13T08:45:06.381Z,20.60
2018-06-13T08:47:34.096Z,20.60
2018-06-13T08:50:03.364Z,20.50
2018-06-13T08:52:31.002Z,20.50
2018-06-13T08:55:00.588Z,20.40
2018-06-13T08:57:28.668Z,20.20
2018-06-13T08:59:56.426Z,20.20
2018-06-13T09:02:24.289Z,20.10
2018-06-13T09:04:51.894Z,20.20
2018-06-13T09:07:20.429Z,20.20
2018-06-13T09:09:48.645Z,20.20
2018-06-13T09:12:17.409Z,20.10
2018-06-13T09:14:46.470Z,20.10
2018-06-13T09:17:13.926Z,20.10
2018-06-13T09:19:41.581Z,20.10
2018-06-13T09:22:10.405Z,20.10
2018-06-13T09:24:38.579Z,20.20
2018-06-13T09:27:07.237Z,20.20
2018-06-13T09:29:34.811Z,20.30
2018-06-13T09:32:02.996Z,20.30
2018-06-13T09:49:11.397Z,20.20
2018-06-13T09:51:39.133Z,20.20
2018-06-13T09:54:07.444Z,20.30
2018-06-13T09:56:35.007Z,20.30
2018-06-13T09:59:08.474Z,20.30
2018-06-13T10:01:41.838Z,20.30
2018-06-13T10:04:11.418Z,20.30
2018-06-13T10:06:39.744Z,20.40
2018-06-13T10:09:09.779Z,20.30
2018-06-13T10:11:37.304Z,20.30
2018-06-13T10:14:05.332Z,20.30
2018-06-13T10:16:33.980Z,20.20
2018-06-13T10:19:02.977Z,20.20
2018-06-13T10:21:34.036Z,20.30
2018-06-13T10:26:30.303Z,20.40
2018-06-13T10:28:58.183Z,20.50
2018-06-13T10:31:26.404Z,20.40
2018-06-13T10:33:54.749Z,20.40
2018-06-13T10:36:22.828Z,20.40
2018-06-13T10:38:50.375Z,20.40
2018-06-13T10:41:19.150Z,20.40
2018-06-13T10:43:46.771Z,20.50
2018-06-13T10:46:15.112Z,20.50
2018-06-13T10:48:43.105Z,20.60
2018-06-13T10:51:10.655Z,20.70
2018-06-13T10:53:38.849Z,20.80
2018-06-13T10:56:06.481Z,20.90
2018-06-13T10:58:35.114Z,20.90
2018-06-13T11:03:31.075Z,20.90
2018-06-13T11:06:01.421Z,20.90
2018-06-13T11:08:29.008Z,20.90
2018-06-13T11:10:56.704Z,20.80
2018-06-13T11:13:24.209Z,20.70
2018-06-13T11:15:52.407Z,20.70
2018-06-13T11:18:20.751Z,20.60
2018-06-13T11:20:49.335Z,20.80
2018-06-13T11:23:17.628Z,20.80
2018-06-13T11:25:45.263Z,20.90
2018-06-13T11:28:13.029Z,20.80
2018-06-13T11:35:36.361Z,20.90
2018-06-13T11:38:03.924Z,21.00
2018-06-13T11:42:59.436Z,21.00
2018-06-13T11:45:27.191Z,21.10
2018-06-13T11:47:54.758Z,21.10
2018-06-13T11:50:22.761Z,21.10
2018-06-13T11:52:50.790Z,21.20
2018-06-13T11:55:18.668Z,21.30
2018-06-13T11:57:46.399Z,21.50
2018-06-13T12:00:15.429Z,21.50
2018-06-13T12:02:43.269Z,21.50
2018-06-13T12:05:11.828Z,21.50
2018-06-13T12:07:39.792Z,21.40
2018-06-13T12:10:07.458Z,21.40
2018-06-13T12:12:35.157Z,21.40
2018-06-13T12:15:02.734Z,21.40
2018-06-13T12:17:31.329Z,21.40
2018-06-13T12:19:59.928Z,21.30
2018-06-13T12:22:27.538Z,21.30
2018-06-13T12:24:56.021Z,21.20
2018-06-13T12:27:23.589Z,21.30
2018-06-13T12:29:52.595Z,21.30
2018-06-13T12:32:20.278Z,21.30
2018-06-13T12:34:49.025Z,21.30
2018-06-13T12:37:17.046Z,21.30
2018-06-13T12:39:44.829Z,21.30
2018-06-13T12:42:13.359Z,21.30
2018-06-13T12:44:44.780Z,21.20
2018-06-13T12:47:17.150Z,21.20
2018-06-13T12:49:47.140Z,21.20
2018-06-13T13:05:19.848Z,21.10
2018-06-13T13:10:15.620Z,21.10
2018-06-13T13:12:45.183Z,21.10
2018-06-13T13:15:13.691Z,21.00
2018-06-13T13:17:42.252Z,20.90
2018-06-13T13:20:09.809Z,20.90
2018-06-13T13:22:37.388Z,20.90
2018-06-13T13:25:05.269Z,20.80
2018-06-13T13:27:32.866Z,20.70
2018-06-13T13:30:00.897Z,20.70
2018-06-13T13:32:28.459Z,20.70
2018-06-13T13:34:56.705Z,20.80
2018-06-13T13:37:25.300Z,20.80
2018-06-13T13:39:52.932Z,20.90
2018-06-13T13:42:20.592Z,20.80
2018-06-13T13:44:48.177Z,20.80
2018-06-13T13:47:15.718Z,20.80
2018-06-13T13:49:44.793Z,20.90
2018-06-13T13:52:13.013Z,20.90
2018-06-13T13:54:40.601Z,21.00
2018-06-13T13:57:08.348Z,21.00
2018-06-13T13:59:35.820Z,21.10
2018-06-13T14:02:03.519Z,21.00
2018-06-13T14:04:31.593Z,21.00
2018-06-13T14:06:59.954Z,21.00
2018-06-13T14:09:28.753Z,20.50
2018-06-13T14:24:15.808Z,20.70
2018-06-13T14:26:43.487Z,20.70
2018-06-13T14:29:11.259Z,20.60
2018-06-13T14:31:39.474Z,20.60
2018-06-13T14:34:07.785Z,20.60
2018-06-13T14:39:07.237Z,20.50
2018-06-13T14:41:36.865Z,20.50
2018-06-13T14:44:05.388Z,20.40
2018-06-13T14:58:47.009Z,20.70
2018-06-13T15:01:17.610Z,20.80
2018-06-13T15:03:45.711Z,20.90
2018-06-13T15:06:13.260Z,20.90
2018-06-13T15:08:41.515Z,20.90
2018-06-13T15:11:11.130Z,21.00
2018-06-13T15:13:39.873Z,21.10
2018-06-13T15:16:07.426Z,21.10
2018-06-13T15:18:36.135Z,21.20
2018-06-13T15:21:06.955Z,21.30
2018-06-13T15:26:04.625Z,21.30
2018-06-13T15:28:34.002Z,21.30
2018-06-13T15:31:01.546Z,21.40
2018-06-13T15:35:58.469Z,21.30
2018-06-13T15:38:26.018Z,21.30
2018-06-13T15:43:22.857Z,21.30
2018-06-13T15:45:50.660Z,21.30
2018-06-13T15:48:18.354Z,21.30
2018-06-13T15:50:46.496Z,21.30
2018-06-13T15:53:17.539Z,21.30
2018-06-13T15:55:45.399Z,21.30
2018-06-13T15:58:14.921Z,21.30
2018-06-13T16:00:43.108Z,21.30
2018-06-13T16:03:10.789Z,21.30
2018-06-13T16:05:39.346Z,21.30
2018-06-13T16:08:06.928Z,21.30
2018-06-13T16:10:34.595Z,21.30
2018-06-13T16:13:03.261Z,21.20
2018-06-13T16:15:33.676Z,21.20
2018-06-13T16:20:29.169Z,21.10
2018-06-13T16:22:56.898Z,21.10
2018-06-13T16:25:24.496Z,21.10
2018-06-13T16:27:53.161Z,21.10
2018-06-13T16:30:21.656Z,21.10
2018-06-13T16:32:50.746Z,21.10
2018-06-13T16:35:18.284Z,21.10
2018-06-13T16:40:14.854Z,21.10
2018-06-13T16:45:13.142Z,21.10
2018-06-13T16:47:40.910Z,21.10
2018-06-13T16:50:19.873Z,21.10
2018-06-13T16:52:59.349Z,21.10
2018-06-13T16:55:30.316Z,21.00
2018-06-13T17:00:28.223Z,20.90
2018-06-13T17:02:56.339Z,21.00
2018-06-13T17:05:24.512Z,21.00
2018-06-13T17:07:52.682Z,21.00
2018-06-13T17:10:22.489Z,21.00
2018-06-13T17:12:53.736Z,21.00
2018-06-13T17:15:25.628Z,20.90
2018-06-13T17:17:53.295Z,21.00
2018-06-13T17:20:21.448Z,20.90
2018-06-13T17:22:49.043Z,20.90
2018-06-13T17:25:16.599Z,20.80
2018-06-13T17:27:48.325Z,20.70
2018-06-13T17:30:18.772Z,20.70
2018-06-13T17:32:47.830Z,20.60
2018-06-13T17:35:15.588Z,20.60
2018-06-13T17:37:46.030Z,20.60
2018-06-13T17:40:13.882Z,20.50
2018-06-13T17:42:42.142Z,20.50
2018-06-13T17:45:10.583Z,20.50
2018-06-13T17:47:38.116Z,20.40
2018-06-13T17:50:08.177Z,20.40
2018-06-13T18:09:48.211Z,20.30
2018-06-13T18:12:16.854Z,20.30
2018-06-13T18:17:11.900Z,20.20
2018-06-13T18:22:07.047Z,20.10
2018-06-13T18:24:34.710Z,20.10
2018-06-13T18:27:02.986Z,20.00
2018-06-13T18:29:30.676Z,19.90
2018-06-13T18:31:58.345Z,20.10
2018-06-13T18:34:26.764Z,20.20
2018-06-13T18:39:23.755Z,20.20
2018-06-13T18:41:53.581Z,20.20
2018-06-13T18:49:21.327Z,20.10
2018-06-13T18:51:48.953Z,20.00
2018-06-13T18:54:16.488Z,19.90
2018-06-13T18:56:44.067Z,19.90
2018-06-13T19:01:39.327Z,19.80
2018-06-13T19:04:07.606Z,19.70
2018-06-13T19:06:36.320Z,19.60
2018-06-13T19:09:08.400Z,19.50
2018-06-13T19:11:36.739Z,19.50
2018-06-13T19:14:05.291Z,19.50
2018-06-13T19:19:01.356Z,19.40
2018-06-13T19:26:27.870Z,19.30
2018-06-13T19:28:57.291Z,19.40
2018-06-13T19:31:25.922Z,19.30
2018-06-13T19:33:54.507Z,19.30
2018-06-13T19:38:51.284Z,19.20
2018-06-13T19:41:18.857Z,19.20
2018-06-13T19:43:47.240Z,19.20
2018-06-13T19:46:17.006Z,19.20
2018-06-13T19:48:46.495Z,19.20
2018-06-13T19:51:14.669Z,19.20
2018-06-13T19:53:47.862Z,19.10
2018-06-13T19:58:45.884Z,19.00
2018-06-13T20:13:33.021Z,19.00
2018-06-13T20:16:06.587Z,19.00
2018-06-13T20:18:39.751Z,19.00
2018-06-13T20:21:09.393Z,16.10
2018-06-13T20:26:11.941Z,18.90
2018-06-13T20:28:46.943Z,18.90
2018-06-13T20:31:34.771Z,18.90
2018-06-13T20:34:02.501Z,18.80
2018-06-13T20:36:30.668Z,18.80
2018-06-13T20:38:58.932Z,18.30
2018-06-13T20:41:26.552Z,18.80
2018-06-13T20:43:54.833Z,18.70
2018-06-13T20:48:53.122Z,18.70
2018-06-13T20:51:25.205Z,18.70
2018-06-13T20:53:53.619Z,18.70
2018-06-13T21:03:46.320Z,18.60
2018-06-13T21:06:13.919Z,18.50
2018-06-13T21:08:44.184Z,18.50
2018-06-13T21:11:16.320Z,18.40
2018-06-13T21:13:45.338Z,18.50
2018-06-13T21:18:41.646Z,18.50
2018-06-13T21:21:10.187Z,18.40
2018-06-13T21:23:37.745Z,18.40
2018-06-13T21:26:06.589Z,18.40
2018-06-13T21:31:02.312Z,18.30
2018-06-13T21:33:29.915Z,18.30
2018-06-13T21:35:58.134Z,18.20
2018-06-13T21:38:25.657Z,18.20
2018-06-13T21:40:54.430Z,18.20
2018-06-13T21:43:21.938Z,18.10
2018-06-13T21:45:49.429Z,18.20
2018-06-13T21:48:17.146Z,18.10
2018-06-13T21:50:44.758Z,18.10
2018-06-13T21:53:13.184Z,18.10
2018-06-13T21:58:08.237Z,18.10
2018-06-13T22:08:02.009Z,17.90
2018-06-13T22:10:29.640Z,18.00
2018-06-13T22:15:26.289Z,17.90
2018-06-13T22:17:56.266Z,17.90
2018-06-13T22:22:51.449Z,17.90
2018-06-13T22:25:19.629Z,17.90
2018-06-13T22:27:47.878Z,17.90
2018-06-13T22:30:15.714Z,17.90
2018-06-13T22:32:44.517Z,17.90
2018-06-13T22:37:39.540Z,17.90
2018-06-13T22:40:15.166Z,17.90
2018-06-13T22:42:48.254Z,17.90
2018-06-13T22:47:44.627Z,17.70
2018-06-13T22:50:12.267Z,17.70
2018-06-13T22:52:41.105Z,17.60
2018-06-13T22:55:08.629Z,17.70
2018-06-13T23:00:06.767Z,17.70
2018-06-13T23:02:34.435Z,17.70
2018-06-13T23:05:02.114Z,17.70
2018-06-13T23:07:29.694Z,17.60
2018-06-13T23:09:57.382Z,17.60
2018-06-13T23:12:25.810Z,17.60
2018-06-13T23:14:53.409Z,17.60
2018-06-13T23:17:21.027Z,17.60
2018-06-13T23:19:48.720Z,17.60
2018-06-13T23:22:16.829Z,17.60
2018-06-13T23:24:45.259Z,17.70
2018-06-13T23:27:12.867Z,17.70
2018-06-13T23:29:40.373Z,17.70
2018-06-13T23:32:09.000Z,17.60
2018-06-13T23:34:36.540Z,17.60
2018-06-13T23:37:04.658Z,17.60
2018-06-13T23:39:32.780Z,17.60
2018-06-13T23:44:29.364Z,17.60
2018-06-13T23:46:56.921Z,17.70
2018-06-13T23:49:24.749Z,17.70
2018-06-13T23:54:20.456Z,17.70
2018-06-13T23:56:48.071Z,17.80
2018-06-13T23:59:15.704Z,17.80
